12N

Aeroflex-Andover Airport

Andover, New Jersey, USA
METAR K12N 232154Z AUTO VRB04KT 19/M03 A3037 RMK AO1 SLP285 T01891028
Observed Flight Rules
Apr-23 @ 21:54 UTC (an hour ago)
Wind
Variable at 4 knots
Temperatures Readings
Current 19°C / 66°F
Dewpoint -3°C / 27°F
Humidity 22%
Altimeter 30.37" Hg
Pressure 1028.5 hPa
Elevation 177
METAR K12N 232154Z AUTO VRB04KT 19/M03 A3037 RMK AO1 SLP285 T01891028
Observed Flight Rules
Apr-23 @ 21:54 UTC
(an hour ago)
Wind
Variable at 4 knots
Temperature Dewpoint
19°C / 66°F -3°C / 27°F
Humidity Altimeter Pressure
22% 30.37" Hg 1028.5 hPa